sensor_id;sensor_type;location;lat;lon;timestamp;P1;durP1;ratioP1;P2;durP2;ratioP2
15913;SDS011;8055;51.930;8.840;2022-07-23T00:00:47;10.65;;;6.22;;
15913;SDS011;8055;51.930;8.840;2022-07-23T00:03:12;11.32;;;7.03;;
15913;SDS011;8055;51.930;8.840;2022-07-23T00:05:38;7.68;;;6.45;;
15913;SDS011;8055;51.930;8.840;2022-07-23T00:08:04;11.60;;;6.90;;
15913;SDS011;8055;51.930;8.840;2022-07-23T00:10:33;10.45;;;7.07;;
15913;SDS011;8055;51.930;8.840;2022-07-23T00:12:59;8.23;;;6.82;;
15913;SDS011;8055;51.930;8.840;2022-07-23T00:15:24;7.63;;;6.78;;
15913;SDS011;8055;51.930;8.840;2022-07-23T00:17:50;9.80;;;6.75;;
15913;SDS011;8055;51.930;8.840;2022-07-23T00:20:16;10.85;;;7.93;;
15913;SDS011;8055;51.930;8.840;2022-07-23T00:22:48;11.30;;;7.60;;
15913;SDS011;8055;51.930;8.840;2022-07-23T00:25:15;12.52;;;7.65;;
15913;SDS011;8055;51.930;8.840;2022-07-23T00:27:40;7.97;;;6.18;;
15913;SDS011;8055;51.930;8.840;2022-07-23T00:30:06;9.13;;;6.50;;
15913;SDS011;8055;51.930;8.840;2022-07-23T00:32:32;12.30;;;7.35;;
15913;SDS011;8055;51.930;8.840;2022-07-23T00:34:58;9.63;;;6.30;;
15913;SDS011;8055;51.930;8.840;2022-07-23T00:37:23;13.55;;;7.68;;
15913;SDS011;8055;51.930;8.840;2022-07-23T00:39:49;8.77;;;7.25;;
15913;SDS011;8055;51.930;8.840;2022-07-23T00:42:14;12.13;;;6.63;;
15913;SDS011;8055;51.930;8.840;2022-07-23T00:44:39;10.50;;;6.78;;
15913;SDS011;8055;51.930;8.840;2022-07-23T00:47:05;11.88;;;6.00;;
15913;SDS011;8055;51.930;8.840;2022-07-23T00:49:31;8.55;;;6.38;;
15913;SDS011;8055;51.930;8.840;2022-07-23T00:51:57;10.05;;;6.45;;
15913;SDS011;8055;51.930;8.840;2022-07-23T00:54:26;13.38;;;6.82;;
15913;SDS011;8055;51.930;8.840;2022-07-23T00:56:52;9.63;;;6.28;;
15913;SDS011;8055;51.930;8.840;2022-07-23T00:59:18;11.80;;;7.25;;
15913;SDS011;8055;51.930;8.840;2022-07-23T01:01:44;9.45;;;6.65;;
15913;SDS011;8055;51.930;8.840;2022-07-23T01:04:12;10.07;;;6.40;;
15913;SDS011;8055;51.930;8.840;2022-07-23T01:06:40;8.40;;;6.47;;
15913;SDS011;8055;51.930;8.840;2022-07-23T01:09:06;13.07;;;6.60;;
15913;SDS011;8055;51.930;8.840;2022-07-23T01:11:33;9.77;;;6.10;;
15913;SDS011;8055;51.930;8.840;2022-07-23T01:14:07;8.23;;;6.45;;
15913;SDS011;8055;51.930;8.840;2022-07-23T01:16:33;10.07;;;7.07;;
15913;SDS011;8055;51.930;8.840;2022-07-23T01:18:59;11.07;;;6.80;;
15913;SDS011;8055;51.930;8.840;2022-07-23T01:21:24;9.00;;;6.45;;
15913;SDS011;8055;51.930;8.840;2022-07-23T01:23:50;11.07;;;7.15;;
15913;SDS011;8055;51.930;8.840;2022-07-23T01:26:15;14.65;;;7.55;;
15913;SDS011;8055;51.930;8.840;2022-07-23T01:28:42;11.52;;;7.13;;
15913;SDS011;8055;51.930;8.840;2022-07-23T01:31:07;9.98;;;7.53;;
15913;SDS011;8055;51.930;8.840;2022-07-23T01:33:33;13.80;;;8.60;;
15913;SDS011;8055;51.930;8.840;2022-07-23T01:35:58;8.65;;;7.43;;
15913;SDS011;8055;51.930;8.840;2022-07-23T01:38:24;8.27;;;7.28;;
15913;SDS011;8055;51.930;8.840;2022-07-23T01:40:49;10.55;;;7.10;;
15913;SDS011;8055;51.930;8.840;2022-07-23T01:43:14;14.15;;;7.55;;
15913;SDS011;8055;51.930;8.840;2022-07-23T01:45:40;10.98;;;8.35;;
15913;SDS011;8055;51.930;8.840;2022-07-23T01:48:06;12.30;;;8.40;;
15913;SDS011;8055;51.930;8.840;2022-07-23T01:50:32;11.93;;;8.40;;
15913;SDS011;8055;51.930;8.840;2022-07-23T01:52:57;11.55;;;9.13;;
15913;SDS011;8055;51.930;8.840;2022-07-23T01:55:22;9.88;;;7.65;;
15913;SDS011;8055;51.930;8.840;2022-07-23T01:57:48;16.92;;;8.85;;
15913;SDS011;8055;51.930;8.840;2022-07-23T02:00:13;13.82;;;9.75;;
15913;SDS011;8055;51.930;8.840;2022-07-23T02:02:39;17.73;;;10.50;;
15913;SDS011;8055;51.930;8.840;2022-07-23T02:05:04;14.70;;;9.82;;
15913;SDS011;8055;51.930;8.840;2022-07-23T02:07:30;13.40;;;9.55;;
15913;SDS011;8055;51.930;8.840;2022-07-23T02:09:55;10.48;;;8.82;;
15913;SDS011;8055;51.930;8.840;2022-07-23T02:12:21;13.23;;;9.18;;
15913;SDS011;8055;51.930;8.840;2022-07-23T02:14:46;12.40;;;10.07;;
15913;SDS011;8055;51.930;8.840;2022-07-23T02:17:12;11.07;;;9.10;;
15913;SDS011;8055;51.930;8.840;2022-07-23T02:19:37;15.90;;;11.00;;
15913;SDS011;8055;51.930;8.840;2022-07-23T02:22:03;15.40;;;10.48;;
15913;SDS011;8055;51.930;8.840;2022-07-23T02:24:28;16.60;;;11.48;;
15913;SDS011;8055;51.930;8.840;2022-07-23T02:26:53;17.67;;;11.48;;
15913;SDS011;8055;51.930;8.840;2022-07-23T02:29:19;16.08;;;11.85;;
15913;SDS011;8055;51.930;8.840;2022-07-23T02:31:44;15.43;;;11.57;;
15913;SDS011;8055;51.930;8.840;2022-07-23T02:34:10;18.05;;;11.65;;
15913;SDS011;8055;51.930;8.840;2022-07-23T02:36:37;19.02;;;12.60;;
15913;SDS011;8055;51.930;8.840;2022-07-23T02:39:03;14.35;;;10.77;;
15913;SDS011;8055;51.930;8.840;2022-07-23T02:41:28;12.20;;;9.73;;
15913;SDS011;8055;51.930;8.840;2022-07-23T02:43:54;17.50;;;11.07;;
15913;SDS011;8055;51.930;8.840;2022-07-23T02:46:19;16.75;;;10.93;;
15913;SDS011;8055;51.930;8.840;2022-07-23T02:48:45;16.45;;;10.00;;
15913;SDS011;8055;51.930;8.840;2022-07-23T02:51:10;16.63;;;9.35;;
15913;SDS011;8055;51.930;8.840;2022-07-23T02:53:35;12.90;;;10.55;;
15913;SDS011;8055;51.930;8.840;2022-07-23T02:56:01;15.45;;;11.85;;
15913;SDS011;8055;51.930;8.840;2022-07-23T02:58:27;14.43;;;10.35;;
15913;SDS011;8055;51.930;8.840;2022-07-23T03:00:52;17.63;;;11.63;;
15913;SDS011;8055;51.930;8.840;2022-07-23T03:03:18;13.57;;;11.73;;
15913;SDS011;8055;51.930;8.840;2022-07-23T03:05:43;13.43;;;10.23;;
15913;SDS011;8055;51.930;8.840;2022-07-23T03:08:09;18.75;;;11.88;;
15913;SDS011;8055;51.930;8.840;2022-07-23T03:10:34;16.38;;;10.85;;
15913;SDS011;8055;51.930;8.840;2022-07-23T03:13:00;15.48;;;11.23;;
15913;SDS011;8055;51.930;8.840;2022-07-23T03:15:25;16.55;;;10.77;;
15913;SDS011;8055;51.930;8.840;2022-07-23T03:17:51;15.90;;;11.88;;
15913;SDS011;8055;51.930;8.840;2022-07-23T03:20:16;17.58;;;11.88;;
15913;SDS011;8055;51.930;8.840;2022-07-23T03:22:41;14.85;;;11.32;;
15913;SDS011;8055;51.930;8.840;2022-07-23T03:25:07;13.50;;;10.80;;
15913;SDS011;8055;51.930;8.840;2022-07-23T03:27:33;15.00;;;11.23;;
15913;SDS011;8055;51.930;8.840;2022-07-23T03:29:59;15.63;;;11.07;;
15913;SDS011;8055;51.930;8.840;2022-07-23T03:32:25;15.73;;;10.98;;
15913;SDS011;8055;51.930;8.840;2022-07-23T03:34:51;12.93;;;10.55;;
15913;SDS011;8055;51.930;8.840;2022-07-23T03:37:17;14.00;;;10.02;;
15913;SDS011;8055;51.930;8.840;2022-07-23T03:39:43;11.52;;;9.73;;
15913;SDS011;8055;51.930;8.840;2022-07-23T03:42:09;11.88;;;9.32;;
15913;SDS011;8055;51.930;8.840;2022-07-23T03:44:35;14.27;;;10.45;;
15913;SDS011;8055;51.930;8.840;2022-07-23T03:47:02;15.10;;;11.88;;
15913;SDS011;8055;51.930;8.840;2022-07-23T03:49:28;15.02;;;11.40;;
15913;SDS011;8055;51.930;8.840;2022-07-23T03:51:54;16.48;;;11.65;;
15913;SDS011;8055;51.930;8.840;2022-07-23T03:54:19;14.57;;;10.88;;
15913;SDS011;8055;51.930;8.840;2022-07-23T03:56:45;14.95;;;11.40;;
15913;SDS011;8055;51.930;8.840;2022-07-23T03:59:10;15.77;;;12.15;;
15913;SDS011;8055;51.930;8.840;2022-07-23T04:01:35;19.27;;;11.38;;
15913;SDS011;8055;51.930;8.840;2022-07-23T04:04:01;13.63;;;11.50;;
15913;SDS011;8055;51.930;8.840;2022-07-23T04:06:27;13.05;;;11.10;;
15913;SDS011;8055;51.930;8.840;2022-07-23T04:08:52;16.30;;;10.60;;
15913;SDS011;8055;51.930;8.840;2022-07-23T04:11:18;11.57;;;9.57;;
15913;SDS011;8055;51.930;8.840;2022-07-23T04:13:44;13.65;;;11.90;;
15913;SDS011;8055;51.930;8.840;2022-07-23T04:16:09;13.18;;;10.85;;
15913;SDS011;8055;51.930;8.840;2022-07-23T04:18:34;13.93;;;11.55;;
15913;SDS011;8055;51.930;8.840;2022-07-23T04:21:00;13.02;;;10.80;;
15913;SDS011;8055;51.930;8.840;2022-07-23T04:23:25;16.27;;;11.25;;
15913;SDS011;8055;51.930;8.840;2022-07-23T04:25:51;30.13;;;14.57;;
15913;SDS011;8055;51.930;8.840;2022-07-23T04:28:16;17.50;;;12.85;;
15913;SDS011;8055;51.930;8.840;2022-07-23T04:30:42;16.02;;;12.20;;
15913;SDS011;8055;51.930;8.840;2022-07-23T04:33:07;20.00;;;13.25;;
15913;SDS011;8055;51.930;8.840;2022-07-23T04:35:33;28.70;;;14.98;;
15913;SDS011;8055;51.930;8.840;2022-07-23T04:37:59;21.90;;;15.57;;
15913;SDS011;8055;51.930;8.840;2022-07-23T04:40:25;32.17;;;16.98;;
15913;SDS011;8055;51.930;8.840;2022-07-23T04:42:51;47.97;;;15.82;;
15913;SDS011;8055;51.930;8.840;2022-07-23T04:45:17;22.80;;;15.25;;
15913;SDS011;8055;51.930;8.840;2022-07-23T04:47:43;30.23;;;16.15;;
15913;SDS011;8055;51.930;8.840;2022-07-23T04:50:08;25.98;;;15.40;;
15913;SDS011;8055;51.930;8.840;2022-07-23T04:52:34;104.35;;;16.80;;
15913;SDS011;8055;51.930;8.840;2022-07-23T04:54:59;26.10;;;15.55;;
15913;SDS011;8055;51.930;8.840;2022-07-23T04:57:24;51.58;;;16.08;;
15913;SDS011;8055;51.930;8.840;2022-07-23T04:59:50;21.85;;;15.07;;
15913;SDS011;8055;51.930;8.840;2022-07-23T05:02:15;46.50;;;16.75;;
15913;SDS011;8055;51.930;8.840;2022-07-23T05:04:41;30.88;;;14.68;;
15913;SDS011;8055;51.930;8.840;2022-07-23T05:07:06;51.90;;;16.08;;
15913;SDS011;8055;51.930;8.840;2022-07-23T05:09:32;52.95;;;16.20;;
15913;SDS011;8055;51.930;8.840;2022-07-23T05:11:57;23.17;;;16.38;;
15913;SDS011;8055;51.930;8.840;2022-07-23T05:14:23;85.53;;;17.60;;
15913;SDS011;8055;51.930;8.840;2022-07-23T05:16:49;40.88;;;18.17;;
15913;SDS011;8055;51.930;8.840;2022-07-23T05:19:14;29.05;;;17.88;;
15913;SDS011;8055;51.930;8.840;2022-07-23T05:21:40;32.30;;;19.13;;
15913;SDS011;8055;51.930;8.840;2022-07-23T05:24:05;25.88;;;18.02;;
15913;SDS011;8055;51.930;8.840;2022-07-23T05:26:31;30.13;;;19.58;;
15913;SDS011;8055;51.930;8.840;2022-07-23T05:28:56;26.33;;;18.85;;
15913;SDS011;8055;51.930;8.840;2022-07-23T05:31:22;27.38;;;19.67;;
15913;SDS011;8055;51.930;8.840;2022-07-23T05:33:47;23.10;;;17.90;;
15913;SDS011;8055;51.930;8.840;2022-07-23T05:36:12;21.60;;;17.38;;
15913;SDS011;8055;51.930;8.840;2022-07-23T05:38:38;22.75;;;17.40;;
15913;SDS011;8055;51.930;8.840;2022-07-23T05:41:03;23.05;;;16.83;;
15913;SDS011;8055;51.930;8.840;2022-07-23T05:43:29;24.77;;;18.02;;
15913;SDS011;8055;51.930;8.840;2022-07-23T05:45:54;19.30;;;16.50;;
15913;SDS011;8055;51.930;8.840;2022-07-23T05:48:20;27.63;;;18.00;;
15913;SDS011;8055;51.930;8.840;2022-07-23T05:50:46;24.30;;;17.00;;
15913;SDS011;8055;51.930;8.840;2022-07-23T05:53:12;24.27;;;17.17;;
15913;SDS011;8055;51.930;8.840;2022-07-23T05:55:37;25.55;;;17.77;;
15913;SDS011;8055;51.930;8.840;2022-07-23T05:58:03;30.55;;;20.33;;
15913;SDS011;8055;51.930;8.840;2022-07-23T06:00:28;22.13;;;18.40;;
15913;SDS011;8055;51.930;8.840;2022-07-23T06:02:54;21.35;;;18.95;;
15913;SDS011;8055;51.930;8.840;2022-07-23T06:05:20;25.27;;;18.73;;
15913;SDS011;8055;51.930;8.840;2022-07-23T06:07:45;29.95;;;18.88;;
15913;SDS011;8055;51.930;8.840;2022-07-23T06:10:11;26.70;;;18.48;;
15913;SDS011;8055;51.930;8.840;2022-07-23T06:12:36;27.65;;;18.13;;
15913;SDS011;8055;51.930;8.840;2022-07-23T06:15:02;21.92;;;17.80;;
15913;SDS011;8055;51.930;8.840;2022-07-23T06:17:29;23.38;;;17.48;;
15913;SDS011;8055;51.930;8.840;2022-07-23T06:19:55;18.20;;;15.55;;
15913;SDS011;8055;51.930;8.840;2022-07-23T06:22:20;23.92;;;16.70;;
15913;SDS011;8055;51.930;8.840;2022-07-23T06:24:46;23.80;;;16.38;;
15913;SDS011;8055;51.930;8.840;2022-07-23T06:27:12;22.23;;;17.48;;
15913;SDS011;8055;51.930;8.840;2022-07-23T06:29:37;20.85;;;15.60;;
15913;SDS011;8055;51.930;8.840;2022-07-23T06:32:02;21.10;;;15.98;;
15913;SDS011;8055;51.930;8.840;2022-07-23T06:34:28;18.80;;;15.30;;
15913;SDS011;8055;51.930;8.840;2022-07-23T06:36:54;22.65;;;15.90;;
15913;SDS011;8055;51.930;8.840;2022-07-23T06:39:19;21.65;;;15.63;;
15913;SDS011;8055;51.930;8.840;2022-07-23T06:41:44;20.45;;;14.55;;
15913;SDS011;8055;51.930;8.840;2022-07-23T06:44:10;20.88;;;13.82;;
15913;SDS011;8055;51.930;8.840;2022-07-23T06:46:35;18.75;;;13.27;;
15913;SDS011;8055;51.930;8.840;2022-07-23T06:49:01;21.00;;;15.25;;
15913;SDS011;8055;51.930;8.840;2022-07-23T06:51:27;17.85;;;13.35;;
15913;SDS011;8055;51.930;8.840;2022-07-23T06:53:52;16.55;;;12.13;;
15913;SDS011;8055;51.930;8.840;2022-07-23T06:56:18;13.05;;;9.88;;
15913;SDS011;8055;51.930;8.840;2022-07-23T06:58:43;12.73;;;9.60;;
15913;SDS011;8055;51.930;8.840;2022-07-23T07:01:09;13.95;;;10.13;;
15913;SDS011;8055;51.930;8.840;2022-07-23T07:03:34;20.52;;;10.43;;
15913;SDS011;8055;51.930;8.840;2022-07-23T07:05:59;16.30;;;9.93;;
15913;SDS011;8055;51.930;8.840;2022-07-23T07:08:25;13.88;;;10.02;;
15913;SDS011;8055;51.930;8.840;2022-07-23T07:10:50;16.90;;;9.88;;
15913;SDS011;8055;51.930;8.840;2022-07-23T07:13:16;17.63;;;9.57;;
15913;SDS011;8055;51.930;8.840;2022-07-23T07:15:42;15.35;;;9.60;;
15913;SDS011;8055;51.930;8.840;2022-07-23T07:18:07;12.90;;;9.45;;
15913;SDS011;8055;51.930;8.840;2022-07-23T07:20:32;14.15;;;8.85;;
15913;SDS011;8055;51.930;8.840;2022-07-23T07:22:58;15.02;;;9.23;;
15913;SDS011;8055;51.930;8.840;2022-07-23T07:25:23;10.27;;;8.73;;
15913;SDS011;8055;51.930;8.840;2022-07-23T07:27:49;14.50;;;9.27;;
15913;SDS011;8055;51.930;8.840;2022-07-23T07:30:14;12.15;;;8.70;;
15913;SDS011;8055;51.930;8.840;2022-07-23T07:32:40;9.68;;;7.57;;
15913;SDS011;8055;51.930;8.840;2022-07-23T07:35:05;10.35;;;7.68;;
15913;SDS011;8055;51.930;8.840;2022-07-23T07:37:31;13.68;;;7.90;;
15913;SDS011;8055;51.930;8.840;2022-07-23T07:39:57;13.45;;;8.25;;
15913;SDS011;8055;51.930;8.840;2022-07-23T07:42:22;14.45;;;8.40;;
15913;SDS011;8055;51.930;8.840;2022-07-23T07:44:47;12.93;;;8.23;;
15913;SDS011;8055;51.930;8.840;2022-07-23T07:47:13;9.88;;;8.23;;
15913;SDS011;8055;51.930;8.840;2022-07-23T07:49:40;12.48;;;7.80;;
15913;SDS011;8055;51.930;8.840;2022-07-23T07:52:07;11.20;;;7.70;;
15913;SDS011;8055;51.930;8.840;2022-07-23T07:54:32;13.48;;;7.63;;
15913;SDS011;8055;51.930;8.840;2022-07-23T07:56:58;8.00;;;6.53;;
15913;SDS011;8055;51.930;8.840;2022-07-23T07:59:23;10.32;;;7.65;;
15913;SDS011;8055;51.930;8.840;2022-07-23T08:01:49;9.20;;;6.97;;
15913;SDS011;8055;51.930;8.840;2022-07-23T08:04:14;9.88;;;6.90;;
15913;SDS011;8055;51.930;8.840;2022-07-23T08:06:40;8.80;;;6.18;;
15913;SDS011;8055;51.930;8.840;2022-07-23T08:09:05;8.70;;;6.57;;
15913;SDS011;8055;51.930;8.840;2022-07-23T08:11:30;11.27;;;6.75;;
15913;SDS011;8055;51.930;8.840;2022-07-23T08:13:56;10.80;;;6.82;;
15913;SDS011;8055;51.930;8.840;2022-07-23T08:16:21;9.88;;;7.22;;
15913;SDS011;8055;51.930;8.840;2022-07-23T08:18:47;9.20;;;6.50;;
15913;SDS011;8055;51.930;8.840;2022-07-23T08:21:12;10.05;;;6.82;;
15913;SDS011;8055;51.930;8.840;2022-07-23T08:23:38;12.05;;;7.10;;
15913;SDS011;8055;51.930;8.840;2022-07-23T08:26:03;10.77;;;7.38;;
15913;SDS011;8055;51.930;8.840;2022-07-23T08:28:29;9.38;;;7.00;;
15913;SDS011;8055;51.930;8.840;2022-07-23T08:30:58;13.93;;;6.45;;
15913;SDS011;8055;51.930;8.840;2022-07-23T08:33:23;9.57;;;6.40;;
15913;SDS011;8055;51.930;8.840;2022-07-23T08:35:49;10.02;;;6.35;;
15913;SDS011;8055;51.930;8.840;2022-07-23T08:38:17;9.30;;;5.50;;
15913;SDS011;8055;51.930;8.840;2022-07-23T08:40:47;10.02;;;5.78;;
15913;SDS011;8055;51.930;8.840;2022-07-23T08:43:19;6.75;;;5.13;;
15913;SDS011;8055;51.930;8.840;2022-07-23T08:45:48;10.68;;;5.55;;
15913;SDS011;8055;51.930;8.840;2022-07-23T08:48:16;9.75;;;5.50;;
15913;SDS011;8055;51.930;8.840;2022-07-23T08:50:46;7.90;;;6.00;;
15913;SDS011;8055;51.930;8.840;2022-07-23T08:53:17;6.65;;;5.40;;
15913;SDS011;8055;51.930;8.840;2022-07-23T08:55:44;7.35;;;5.22;;
15913;SDS011;8055;51.930;8.840;2022-07-23T08:58:10;9.43;;;5.93;;
15913;SDS011;8055;51.930;8.840;2022-07-23T09:00:37;11.55;;;6.22;;
15913;SDS011;8055;51.930;8.840;2022-07-23T09:03:02;9.55;;;6.30;;
15913;SDS011;8055;51.930;8.840;2022-07-23T09:05:27;10.45;;;6.13;;
15913;SDS011;8055;51.930;8.840;2022-07-23T09:08:06;9.80;;;5.97;;
15913;SDS011;8055;51.930;8.840;2022-07-23T09:13:22;6.32;;;4.82;;
15913;SDS011;8055;51.930;8.840;2022-07-23T09:15:48;8.75;;;4.88;;
15913;SDS011;8055;51.930;8.840;2022-07-23T09:18:15;8.90;;;5.85;;
15913;SDS011;8055;51.930;8.840;2022-07-23T09:20:41;7.28;;;4.50;;
15913;SDS011;8055;51.930;8.840;2022-07-23T09:23:06;7.95;;;5.10;;
15913;SDS011;8055;51.930;8.840;2022-07-23T09:25:31;6.70;;;4.85;;
15913;SDS011;8055;51.930;8.840;2022-07-23T09:27:58;7.22;;;4.82;;
15913;SDS011;8055;51.930;8.840;2022-07-23T09:30:28;7.28;;;4.60;;
15913;SDS011;8055;51.930;8.840;2022-07-23T09:33:11;7.85;;;4.78;;
15913;SDS011;8055;51.930;8.840;2022-07-23T09:35:52;7.38;;;4.30;;
15913;SDS011;8055;51.930;8.840;2022-07-23T09:38:20;7.53;;;4.38;;
15913;SDS011;8055;51.930;8.840;2022-07-23T09:41:08;4.45;;;3.92;;
15913;SDS011;8055;51.930;8.840;2022-07-23T09:43:34;7.80;;;4.18;;
15913;SDS011;8055;51.930;8.840;2022-07-23T09:48:49;7.68;;;4.00;;
15913;SDS011;8055;51.930;8.840;2022-07-23T09:51:16;7.38;;;4.30;;
15913;SDS011;8055;51.930;8.840;2022-07-23T09:54:01;9.60;;;3.97;;
15913;SDS011;8055;51.930;8.840;2022-07-23T09:56:27;5.30;;;3.75;;
15913;SDS011;8055;51.930;8.840;2022-07-23T09:58:53;5.00;;;3.97;;
15913;SDS011;8055;51.930;8.840;2022-07-23T10:01:36;6.95;;;3.58;;
15913;SDS011;8055;51.930;8.840;2022-07-23T10:04:03;6.20;;;3.42;;
15913;SDS011;8055;51.930;8.840;2022-07-23T10:06:30;6.50;;;3.88;;
15913;SDS011;8055;51.930;8.840;2022-07-23T10:08:56;4.82;;;4.05;;
15913;SDS011;8055;51.930;8.840;2022-07-23T10:11:24;6.65;;;4.03;;
15913;SDS011;8055;51.930;8.840;2022-07-23T10:13:53;6.13;;;3.40;;
15913;SDS011;8055;51.930;8.840;2022-07-23T10:16:26;9.57;;;3.70;;
15913;SDS011;8055;51.930;8.840;2022-07-23T10:18:52;6.68;;;3.67;;
15913;SDS011;8055;51.930;8.840;2022-07-23T10:21:20;6.72;;;3.53;;
15913;SDS011;8055;51.930;8.840;2022-07-23T10:26:48;8.27;;;3.10;;
15913;SDS011;8055;51.930;8.840;2022-07-23T10:32:08;5.15;;;3.08;;
15913;SDS011;8055;51.930;8.840;2022-07-23T10:35:03;9.50;;;3.13;;
15913;SDS011;8055;51.930;8.840;2022-07-23T10:37:39;8.30;;;3.20;;
15913;SDS011;8055;51.930;8.840;2022-07-23T10:40:12;4.57;;;2.78;;
15913;SDS011;8055;51.930;8.840;2022-07-23T10:42:45;6.45;;;3.00;;
15913;SDS011;8055;51.930;8.840;2022-07-23T10:45:23;5.70;;;3.25;;
15913;SDS011;8055;51.930;8.840;2022-07-23T10:47:49;5.78;;;3.25;;
15913;SDS011;8055;51.930;8.840;2022-07-23T10:58:02;4.45;;;2.60;;
15913;SDS011;8055;51.930;8.840;2022-07-23T11:00:30;5.80;;;3.00;;
15913;SDS011;8055;51.930;8.840;2022-07-23T11:02:58;5.50;;;2.38;;
15913;SDS011;8055;51.930;8.840;2022-07-23T11:05:46;3.70;;;2.50;;
15913;SDS011;8055;51.930;8.840;2022-07-23T11:08:12;5.00;;;3.20;;
15913;SDS011;8055;51.930;8.840;2022-07-23T11:11:22;5.82;;;2.92;;
15913;SDS011;8055;51.930;8.840;2022-07-23T11:13:29;4.28;;;2.53;;
15913;SDS011;8055;51.930;8.840;2022-07-23T11:34:45;3.83;;;2.35;;
15913;SDS011;8055;51.930;8.840;2022-07-23T11:37:27;3.58;;;2.45;;
15913;SDS011;8055;51.930;8.840;2022-07-23T11:39:54;4.20;;;2.20;;
15913;SDS011;8055;51.930;8.840;2022-07-23T11:42:20;5.43;;;2.20;;
15913;SDS011;8055;51.930;8.840;2022-07-23T11:44:46;4.45;;;2.38;;
15913;SDS011;8055;51.930;8.840;2022-07-23T11:47:13;5.28;;;2.58;;
15913;SDS011;8055;51.930;8.840;2022-07-23T11:49:38;3.63;;;2.08;;
15913;SDS011;8055;51.930;8.840;2022-07-23T11:54:42;4.35;;;1.80;;
15913;SDS011;8055;51.930;8.840;2022-07-23T11:57:16;4.43;;;2.30;;
15913;SDS011;8055;51.930;8.840;2022-07-23T11:59:43;4.43;;;1.92;;
15913;SDS011;8055;51.930;8.840;2022-07-23T12:02:11;4.28;;;2.05;;
15913;SDS011;8055;51.930;8.840;2022-07-23T12:04:41;3.42;;;1.95;;
15913;SDS011;8055;51.930;8.840;2022-07-23T12:09:57;7.13;;;1.88;;
15913;SDS011;8055;51.930;8.840;2022-07-23T12:13:03;3.95;;;2.22;;
15913;SDS011;8055;51.930;8.840;2022-07-23T12:15:45;4.05;;;2.35;;
15913;SDS011;8055;51.930;8.840;2022-07-23T12:18:14;4.38;;;1.90;;
15913;SDS011;8055;51.930;8.840;2022-07-23T12:20:43;3.35;;;1.90;;
15913;SDS011;8055;51.930;8.840;2022-07-23T12:23:11;4.47;;;2.20;;
15913;SDS011;8055;51.930;8.840;2022-07-23T12:25:39;5.25;;;2.40;;
15913;SDS011;8055;51.930;8.840;2022-07-23T12:28:10;4.25;;;2.00;;
15913;SDS011;8055;51.930;8.840;2022-07-23T12:30:38;6.00;;;2.10;;
15913;SDS011;8055;51.930;8.840;2022-07-23T12:33:10;4.20;;;2.30;;
15913;SDS011;8055;51.930;8.840;2022-07-23T12:38:07;2.33;;;1.70;;
15913;SDS011;8055;51.930;8.840;2022-07-23T12:40:36;4.95;;;2.00;;
15913;SDS011;8055;51.930;8.840;2022-07-23T12:43:11;6.22;;;2.08;;
15913;SDS011;8055;51.930;8.840;2022-07-23T12:45:45;3.50;;;1.80;;
15913;SDS011;8055;51.930;8.840;2022-07-23T12:53:30;3.15;;;1.70;;
15913;SDS011;8055;51.930;8.840;2022-07-23T12:56:16;3.95;;;1.63;;
15913;SDS011;8055;51.930;8.840;2022-07-23T12:59:20;2.65;;;1.70;;
15913;SDS011;8055;51.930;8.840;2022-07-23T13:01:44;3.28;;;1.42;;
15913;SDS011;8055;51.930;8.840;2022-07-23T13:04:21;3.20;;;1.90;;
15913;SDS011;8055;51.930;8.840;2022-07-23T13:06:51;3.13;;;2.00;;
15913;SDS011;8055;51.930;8.840;2022-07-23T13:09:23;4.03;;;1.60;;
15913;SDS011;8055;51.930;8.840;2022-07-23T13:11:53;3.95;;;1.80;;
15913;SDS011;8055;51.930;8.840;2022-07-23T13:14:20;2.70;;;1.42;;
15913;SDS011;8055;51.930;8.840;2022-07-23T13:16:47;2.80;;;1.50;;
15913;SDS011;8055;51.930;8.840;2022-07-23T13:19:13;6.28;;;1.67;;
15913;SDS011;8055;51.930;8.840;2022-07-23T13:21:39;2.58;;;1.40;;
15913;SDS011;8055;51.930;8.840;2022-07-23T13:24:06;3.70;;;1.55;;
15913;SDS011;8055;51.930;8.840;2022-07-23T13:26:32;2.65;;;1.60;;
15913;SDS011;8055;51.930;8.840;2022-07-23T13:28:58;3.25;;;1.50;;
15913;SDS011;8055;51.930;8.840;2022-07-23T13:31:23;5.43;;;4.60;;
15913;SDS011;8055;51.930;8.840;2022-07-23T13:33:49;3.22;;;2.30;;
15913;SDS011;8055;51.930;8.840;2022-07-23T13:36:15;2.17;;;1.40;;
15913;SDS011;8055;51.930;8.840;2022-07-23T13:38:40;3.80;;;1.42;;
15913;SDS011;8055;51.930;8.840;2022-07-23T13:41:06;3.17;;;1.35;;
15913;SDS011;8055;51.930;8.840;2022-07-23T13:43:32;3.72;;;1.45;;
15913;SDS011;8055;51.930;8.840;2022-07-23T13:45:57;4.65;;;1.40;;
15913;SDS011;8055;51.930;8.840;2022-07-23T13:48:23;3.03;;;1.58;;
15913;SDS011;8055;51.930;8.840;2022-07-23T13:50:49;3.50;;;1.33;;
15913;SDS011;8055;51.930;8.840;2022-07-23T13:53:17;3.47;;;1.50;;
15913;SDS011;8055;51.930;8.840;2022-07-23T13:55:44;1.75;;;1.52;;
15913;SDS011;8055;51.930;8.840;2022-07-23T13:58:11;5.47;;;1.50;;
15913;SDS011;8055;51.930;8.840;2022-07-23T14:00:38;3.30;;;1.33;;
15913;SDS011;8055;51.930;8.840;2022-07-23T14:03:05;3.53;;;1.52;;
15913;SDS011;8055;51.930;8.840;2022-07-23T14:05:30;2.47;;;1.30;;
15913;SDS011;8055;51.930;8.840;2022-07-23T14:07:56;3.17;;;1.10;;
15913;SDS011;8055;51.930;8.840;2022-07-23T14:10:22;4.35;;;1.50;;
15913;SDS011;8055;51.930;8.840;2022-07-23T14:12:48;3.17;;;1.38;;
15913;SDS011;8055;51.930;8.840;2022-07-23T14:15:14;5.30;;;2.25;;
15913;SDS011;8055;51.930;8.840;2022-07-23T14:17:42;1.70;;;1.20;;
15913;SDS011;8055;51.930;8.840;2022-07-23T14:20:09;3.15;;;1.48;;
15913;SDS011;8055;51.930;8.840;2022-07-23T14:22:35;2.97;;;1.33;;
15913;SDS011;8055;51.930;8.840;2022-07-23T14:25:01;3.17;;;1.30;;
15913;SDS011;8055;51.930;8.840;2022-07-23T14:27:27;3.45;;;1.60;;
15913;SDS011;8055;51.930;8.840;2022-07-23T14:29:53;3.38;;;1.42;;
15913;SDS011;8055;51.930;8.840;2022-07-23T14:32:19;3.35;;;1.33;;
15913;SDS011;8055;51.930;8.840;2022-07-23T14:34:45;1.95;;;1.10;;
15913;SDS011;8055;51.930;8.840;2022-07-23T14:37:11;4.32;;;2.35;;
15913;SDS011;8055;51.930;8.840;2022-07-23T14:39:37;2.92;;;1.60;;
15913;SDS011;8055;51.930;8.840;2022-07-23T14:42:03;5.25;;;2.58;;
15913;SDS011;8055;51.930;8.840;2022-07-23T14:44:29;4.43;;;2.20;;
15913;SDS011;8055;51.930;8.840;2022-07-23T14:46:55;3.47;;;1.42;;
15913;SDS011;8055;51.930;8.840;2022-07-23T14:49:20;2.85;;;1.50;;
15913;SDS011;8055;51.930;8.840;2022-07-23T14:51:46;4.22;;;1.05;;
15913;SDS011;8055;51.930;8.840;2022-07-23T14:54:11;1.23;;;0.98;;
15913;SDS011;8055;51.930;8.840;2022-07-23T14:56:38;3.30;;;1.52;;
15913;SDS011;8055;51.930;8.840;2022-07-23T14:59:05;1.45;;;1.35;;
15913;SDS011;8055;51.930;8.840;2022-07-23T15:01:30;1.40;;;1.10;;
15913;SDS011;8055;51.930;8.840;2022-07-23T15:03:56;2.78;;;1.70;;
15913;SDS011;8055;51.930;8.840;2022-07-23T15:06:21;4.40;;;3.17;;
15913;SDS011;8055;51.930;8.840;2022-07-23T15:08:47;3.40;;;1.00;;
15913;SDS011;8055;51.930;8.840;2022-07-23T15:11:12;3.30;;;1.30;;
15913;SDS011;8055;51.930;8.840;2022-07-23T15:13:38;2.03;;;1.00;;
15913;SDS011;8055;51.930;8.840;2022-07-23T15:16:04;1.75;;;1.23;;
15913;SDS011;8055;51.930;8.840;2022-07-23T15:18:30;1.70;;;1.25;;
15913;SDS011;8055;51.930;8.840;2022-07-23T15:20:55;1.75;;;1.10;;
15913;SDS011;8055;51.930;8.840;2022-07-23T15:23:21;1.83;;;1.05;;
15913;SDS011;8055;51.930;8.840;2022-07-23T15:25:47;4.63;;;1.90;;
15913;SDS011;8055;51.930;8.840;2022-07-23T15:28:13;3.70;;;1.20;;
15913;SDS011;8055;51.930;8.840;2022-07-23T15:30:38;1.70;;;1.40;;
15913;SDS011;8055;51.930;8.840;2022-07-23T15:33:04;1.73;;;1.02;;
15913;SDS011;8055;51.930;8.840;2022-07-23T15:35:30;3.33;;;1.27;;
15913;SDS011;8055;51.930;8.840;2022-07-23T15:37:56;2.90;;;1.23;;
15913;SDS011;8055;51.930;8.840;2022-07-23T15:40:21;1.30;;;1.10;;